sensor_id;sensor_type;location;lat;lon;timestamp;P1;durP1;ratioP1;P2;durP2;ratioP2
54871;SDS011;43914;57.680;11.982;2022-07-05T00:00:29;10.65;;;1.82;;
54871;SDS011;43914;57.680;11.982;2022-07-05T00:02:55;7.90;;;1.60;;
54871;SDS011;43914;57.680;11.982;2022-07-05T00:05:20;12.35;;;1.62;;
54871;SDS011;43914;57.680;11.982;2022-07-05T00:07:46;10.55;;;1.90;;
54871;SDS011;43914;57.680;11.982;2022-07-05T00:10:12;8.55;;;1.82;;
54871;SDS011;43914;57.680;11.982;2022-07-05T00:12:38;8.38;;;1.77;;
54871;SDS011;43914;57.680;11.982;2022-07-05T00:15:04;8.23;;;1.80;;
54871;SDS011;43914;57.680;11.982;2022-07-05T00:17:30;9.65;;;1.70;;
54871;SDS011;43914;57.680;11.982;2022-07-05T00:19:56;10.25;;;1.70;;
54871;SDS011;43914;57.680;11.982;2022-07-05T00:22:22;13.83;;;2.52;;
54871;SDS011;43914;57.680;11.982;2022-07-05T00:24:48;9.65;;;1.72;;
54871;SDS011;43914;57.680;11.982;2022-07-05T00:27:13;16.73;;;2.50;;
54871;SDS011;43914;57.680;11.982;2022-07-05T00:29:39;11.93;;;1.90;;
54871;SDS011;43914;57.680;11.982;2022-07-05T00:32:05;13.78;;;1.85;;
54871;SDS011;43914;57.680;11.982;2022-07-05T00:34:31;11.33;;;1.70;;
54871;SDS011;43914;57.680;11.982;2022-07-05T00:36:57;13.18;;;1.87;;
54871;SDS011;43914;57.680;11.982;2022-07-05T00:39:23;13.72;;;1.92;;
54871;SDS011;43914;57.680;11.982;2022-07-05T00:41:48;11.73;;;1.67;;
54871;SDS011;43914;57.680;11.982;2022-07-05T00:44:14;12.63;;;2.02;;
54871;SDS011;43914;57.680;11.982;2022-07-05T00:46:41;11.28;;;1.90;;
54871;SDS011;43914;57.680;11.982;2022-07-05T00:49:09;12.05;;;1.92;;
54871;SDS011;43914;57.680;11.982;2022-07-05T00:51:35;11.85;;;1.72;;
54871;SDS011;43914;57.680;11.982;2022-07-05T00:54:03;16.55;;;2.00;;
54871;SDS011;43914;57.680;11.982;2022-07-05T00:56:31;14.50;;;2.22;;
54871;SDS011;43914;57.680;11.982;2022-07-05T00:58:58;13.78;;;2.00;;
54871;SDS011;43914;57.680;11.982;2022-07-05T01:01:24;13.83;;;2.12;;
54871;SDS011;43914;57.680;11.982;2022-07-05T01:03:51;14.70;;;2.47;;
54871;SDS011;43914;57.680;11.982;2022-07-05T01:06:20;15.40;;;2.22;;
54871;SDS011;43914;57.680;11.982;2022-07-05T01:08:46;9.83;;;1.65;;
54871;SDS011;43914;57.680;11.982;2022-07-05T01:11:14;13.25;;;1.82;;
54871;SDS011;43914;57.680;11.982;2022-07-05T01:13:40;11.22;;;1.80;;
54871;SDS011;43914;57.680;11.982;2022-07-05T01:16:06;12.13;;;1.77;;
54871;SDS011;43914;57.680;11.982;2022-07-05T01:18:33;13.65;;;1.80;;
54871;SDS011;43914;57.680;11.982;2022-07-05T01:21:01;9.40;;;1.92;;
54871;SDS011;43914;57.680;11.982;2022-07-05T01:23:32;11.10;;;1.87;;
54871;SDS011;43914;57.680;11.982;2022-07-05T01:25:57;11.55;;;2.02;;
54871;SDS011;43914;57.680;11.982;2022-07-05T01:28:26;12.82;;;1.70;;
54871;SDS011;43914;57.680;11.982;2022-07-05T01:30:52;16.45;;;1.87;;
54871;SDS011;43914;57.680;11.982;2022-07-05T01:33:18;10.40;;;1.90;;
54871;SDS011;43914;57.680;11.982;2022-07-05T01:35:43;11.35;;;1.77;;
54871;SDS011;43914;57.680;11.982;2022-07-05T01:38:15;9.73;;;1.72;;
54871;SDS011;43914;57.680;11.982;2022-07-05T01:40:38;11.93;;;1.92;;
54871;SDS011;43914;57.680;11.982;2022-07-05T01:43:04;10.75;;;1.60;;
54871;SDS011;43914;57.680;11.982;2022-07-05T01:45:30;8.45;;;1.77;;
54871;SDS011;43914;57.680;11.982;2022-07-05T01:48:10;15.53;;;1.98;;
54871;SDS011;43914;57.680;11.982;2022-07-05T01:50:41;12.15;;;2.00;;
54871;SDS011;43914;57.680;11.982;2022-07-05T01:53:18;13.60;;;1.70;;
54871;SDS011;43914;57.680;11.982;2022-07-05T01:55:50;10.15;;;1.80;;
54871;SDS011;43914;57.680;11.982;2022-07-05T01:58:16;9.53;;;1.77;;
54871;SDS011;43914;57.680;11.982;2022-07-05T02:00:45;9.70;;;1.80;;
54871;SDS011;43914;57.680;11.982;2022-07-05T02:03:14;8.45;;;1.77;;
54871;SDS011;43914;57.680;11.982;2022-07-05T02:05:42;11.15;;;1.60;;
54871;SDS011;43914;57.680;11.982;2022-07-05T02:08:09;11.43;;;2.00;;
54871;SDS011;43914;57.680;11.982;2022-07-05T02:10:36;8.85;;;1.70;;
54871;SDS011;43914;57.680;11.982;2022-07-05T02:13:03;6.33;;;1.60;;
54871;SDS011;43914;57.680;11.982;2022-07-05T02:15:31;7.15;;;1.40;;
54871;SDS011;43914;57.680;11.982;2022-07-05T02:17:58;10.08;;;1.87;;
54871;SDS011;43914;57.680;11.982;2022-07-05T02:20:25;10.28;;;1.60;;
54871;SDS011;43914;57.680;11.982;2022-07-05T02:22:52;9.33;;;1.70;;
54871;SDS011;43914;57.680;11.982;2022-07-05T02:25:17;12.40;;;1.70;;
54871;SDS011;43914;57.680;11.982;2022-07-05T02:27:44;9.00;;;1.72;;
54871;SDS011;43914;57.680;11.982;2022-07-05T02:30:10;9.35;;;1.45;;
54871;SDS011;43914;57.680;11.982;2022-07-05T02:32:36;10.43;;;1.87;;
54871;SDS011;43914;57.680;11.982;2022-07-05T02:35:03;6.72;;;1.55;;
54871;SDS011;43914;57.680;11.982;2022-07-05T02:37:30;9.03;;;1.70;;
54871;SDS011;43914;57.680;11.982;2022-07-05T02:39:56;11.85;;;1.70;;
54871;SDS011;43914;57.680;11.982;2022-07-05T02:42:22;11.35;;;1.90;;
54871;SDS011;43914;57.680;11.982;2022-07-05T02:44:48;11.55;;;1.90;;
54871;SDS011;43914;57.680;11.982;2022-07-05T02:47:14;9.05;;;1.40;;
54871;SDS011;43914;57.680;11.982;2022-07-05T02:49:39;10.18;;;1.67;;
54871;SDS011;43914;57.680;11.982;2022-07-05T02:52:05;8.03;;;1.85;;
54871;SDS011;43914;57.680;11.982;2022-07-05T02:54:31;11.75;;;1.40;;
54871;SDS011;43914;57.680;11.982;2022-07-05T02:56:58;9.98;;;1.65;;
54871;SDS011;43914;57.680;11.982;2022-07-05T02:59:25;9.63;;;1.40;;
54871;SDS011;43914;57.680;11.982;2022-07-05T03:01:52;11.48;;;1.70;;
54871;SDS011;43914;57.680;11.982;2022-07-05T03:04:18;10.35;;;1.50;;
54871;SDS011;43914;57.680;11.982;2022-07-05T03:06:44;12.35;;;1.70;;
54871;SDS011;43914;57.680;11.982;2022-07-05T03:09:10;11.35;;;1.80;;
54871;SDS011;43914;57.680;11.982;2022-07-05T03:11:36;10.23;;;1.70;;
54871;SDS011;43914;57.680;11.982;2022-07-05T03:14:02;10.88;;;1.50;;
54871;SDS011;43914;57.680;11.982;2022-07-05T03:16:28;12.78;;;1.70;;
54871;SDS011;43914;57.680;11.982;2022-07-05T03:18:54;10.50;;;1.80;;
54871;SDS011;43914;57.680;11.982;2022-07-05T03:21:21;9.63;;;1.50;;
54871;SDS011;43914;57.680;11.982;2022-07-05T03:23:47;11.28;;;1.85;;
54871;SDS011;43914;57.680;11.982;2022-07-05T03:26:13;8.50;;;1.80;;
54871;SDS011;43914;57.680;11.982;2022-07-05T03:28:39;12.23;;;1.90;;
54871;SDS011;43914;57.680;11.982;2022-07-05T03:31:05;13.05;;;1.80;;
54871;SDS011;43914;57.680;11.982;2022-07-05T03:33:31;10.50;;;2.00;;
54871;SDS011;43914;57.680;11.982;2022-07-05T03:35:57;10.00;;;1.70;;
54871;SDS011;43914;57.680;11.982;2022-07-05T03:38:23;9.48;;;1.55;;
54871;SDS011;43914;57.680;11.982;2022-07-05T03:40:49;10.05;;;1.60;;
54871;SDS011;43914;57.680;11.982;2022-07-05T03:43:15;10.88;;;1.82;;
54871;SDS011;43914;57.680;11.982;2022-07-05T03:45:40;14.80;;;2.20;;
54871;SDS011;43914;57.680;11.982;2022-07-05T03:48:06;9.18;;;1.75;;
54871;SDS011;43914;57.680;11.982;2022-07-05T03:50:32;14.00;;;1.60;;
54871;SDS011;43914;57.680;11.982;2022-07-05T03:53:01;9.70;;;1.65;;
54871;SDS011;43914;57.680;11.982;2022-07-05T03:55:31;11.83;;;1.65;;
54871;SDS011;43914;57.680;11.982;2022-07-05T03:57:57;8.40;;;1.60;;
54871;SDS011;43914;57.680;11.982;2022-07-05T04:00:23;13.10;;;1.70;;
54871;SDS011;43914;57.680;11.982;2022-07-05T04:02:49;12.53;;;1.65;;
54871;SDS011;43914;57.680;11.982;2022-07-05T04:05:15;10.25;;;1.72;;
54871;SDS011;43914;57.680;11.982;2022-07-05T04:07:53;10.60;;;1.60;;
54871;SDS011;43914;57.680;11.982;2022-07-05T04:10:17;9.75;;;1.55;;
54871;SDS011;43914;57.680;11.982;2022-07-05T04:12:44;12.05;;;1.77;;
54871;SDS011;43914;57.680;11.982;2022-07-05T04:15:10;12.33;;;1.80;;
54871;SDS011;43914;57.680;11.982;2022-07-05T04:17:50;10.82;;;1.52;;
54871;SDS011;43914;57.680;11.982;2022-07-05T04:22:49;9.00;;;1.60;;
54871;SDS011;43914;57.680;11.982;2022-07-05T04:25:17;11.05;;;1.70;;
54871;SDS011;43914;57.680;11.982;2022-07-05T04:27:48;9.83;;;1.77;;
54871;SDS011;43914;57.680;11.982;2022-07-05T04:30:18;14.70;;;1.85;;
54871;SDS011;43914;57.680;11.982;2022-07-05T04:32:46;11.20;;;1.65;;
54871;SDS011;43914;57.680;11.982;2022-07-05T04:35:12;11.43;;;1.90;;
54871;SDS011;43914;57.680;11.982;2022-07-05T04:37:39;9.93;;;2.05;;
54871;SDS011;43914;57.680;11.982;2022-07-05T04:40:07;9.85;;;1.70;;
54871;SDS011;43914;57.680;11.982;2022-07-05T04:42:35;14.40;;;2.00;;
54871;SDS011;43914;57.680;11.982;2022-07-05T04:45:01;13.10;;;2.02;;
54871;SDS011;43914;57.680;11.982;2022-07-05T04:47:28;12.35;;;1.72;;
54871;SDS011;43914;57.680;11.982;2022-07-05T04:49:54;14.25;;;2.00;;
54871;SDS011;43914;57.680;11.982;2022-07-05T04:52:22;8.73;;;1.60;;
54871;SDS011;43914;57.680;11.982;2022-07-05T04:54:49;16.75;;;2.17;;
54871;SDS011;43914;57.680;11.982;2022-07-05T04:57:17;11.18;;;1.70;;
54871;SDS011;43914;57.680;11.982;2022-07-05T04:59:43;10.48;;;2.05;;
54871;SDS011;43914;57.680;11.982;2022-07-05T05:02:09;12.98;;;1.75;;
54871;SDS011;43914;57.680;11.982;2022-07-05T05:04:35;12.20;;;1.92;;
54871;SDS011;43914;57.680;11.982;2022-07-05T05:07:02;10.10;;;2.12;;
54871;SDS011;43914;57.680;11.982;2022-07-05T05:09:28;9.38;;;1.80;;
54871;SDS011;43914;57.680;11.982;2022-07-05T05:11:54;9.50;;;1.67;;
54871;SDS011;43914;57.680;11.982;2022-07-05T05:14:20;11.33;;;1.80;;
54871;SDS011;43914;57.680;11.982;2022-07-05T05:16:46;11.97;;;1.92;;
54871;SDS011;43914;57.680;11.982;2022-07-05T05:19:12;10.20;;;1.57;;
54871;SDS011;43914;57.680;11.982;2022-07-05T05:21:37;15.32;;;2.10;;
54871;SDS011;43914;57.680;11.982;2022-07-05T05:24:04;12.05;;;2.20;;
54871;SDS011;43914;57.680;11.982;2022-07-05T05:26:31;9.65;;;1.92;;
54871;SDS011;43914;57.680;11.982;2022-07-05T05:28:57;15.68;;;1.98;;
54871;SDS011;43914;57.680;11.982;2022-07-05T05:31:23;10.58;;;1.75;;
54871;SDS011;43914;57.680;11.982;2022-07-05T05:33:49;10.65;;;2.10;;
54871;SDS011;43914;57.680;11.982;2022-07-05T05:36:15;15.43;;;1.98;;
54871;SDS011;43914;57.680;11.982;2022-07-05T05:38:40;12.25;;;1.70;;
54871;SDS011;43914;57.680;11.982;2022-07-05T05:41:06;11.15;;;1.98;;
54871;SDS011;43914;57.680;11.982;2022-07-05T05:43:32;13.83;;;1.87;;
54871;SDS011;43914;57.680;11.982;2022-07-05T05:45:59;11.57;;;2.12;;
54871;SDS011;43914;57.680;11.982;2022-07-05T05:48:25;13.50;;;1.80;;
54871;SDS011;43914;57.680;11.982;2022-07-05T05:50:52;8.50;;;1.60;;
54871;SDS011;43914;57.680;11.982;2022-07-05T05:53:18;14.55;;;1.92;;
54871;SDS011;43914;57.680;11.982;2022-07-05T05:55:44;12.73;;;1.75;;
54871;SDS011;43914;57.680;11.982;2022-07-05T05:58:13;13.70;;;1.70;;
54871;SDS011;43914;57.680;11.982;2022-07-05T06:00:46;11.57;;;1.80;;
54871;SDS011;43914;57.680;11.982;2022-07-05T06:03:16;13.68;;;2.00;;
54871;SDS011;43914;57.680;11.982;2022-07-05T06:05:50;12.95;;;1.55;;
54871;SDS011;43914;57.680;11.982;2022-07-05T06:08:17;9.08;;;1.85;;
54871;SDS011;43914;57.680;11.982;2022-07-05T06:10:44;11.43;;;1.47;;
54871;SDS011;43914;57.680;11.982;2022-07-05T06:13:11;11.68;;;1.60;;
54871;SDS011;43914;57.680;11.982;2022-07-05T06:15:39;10.15;;;1.65;;
54871;SDS011;43914;57.680;11.982;2022-07-05T06:18:06;9.35;;;1.60;;
54871;SDS011;43914;57.680;11.982;2022-07-05T06:20:35;11.40;;;1.67;;
54871;SDS011;43914;57.680;11.982;2022-07-05T06:23:03;11.25;;;1.60;;
54871;SDS011;43914;57.680;11.982;2022-07-05T06:25:31;11.68;;;1.90;;
54871;SDS011;43914;57.680;11.982;2022-07-05T06:28:00;11.22;;;1.57;;
54871;SDS011;43914;57.680;11.982;2022-07-05T06:30:30;12.23;;;1.80;;
54871;SDS011;43914;57.680;11.982;2022-07-05T06:32:58;13.18;;;1.80;;
54871;SDS011;43914;57.680;11.982;2022-07-05T06:35:24;9.40;;;1.42;;
54871;SDS011;43914;57.680;11.982;2022-07-05T06:37:55;9.35;;;1.72;;
54871;SDS011;43914;57.680;11.982;2022-07-05T06:40:31;7.22;;;1.40;;
54871;SDS011;43914;57.680;11.982;2022-07-05T06:43:01;9.05;;;1.52;;
54871;SDS011;43914;57.680;11.982;2022-07-05T06:45:30;9.33;;;1.60;;
54871;SDS011;43914;57.680;11.982;2022-07-05T06:47:57;8.03;;;1.37;;
54871;SDS011;43914;57.680;11.982;2022-07-05T06:50:29;10.80;;;1.65;;
54871;SDS011;43914;57.680;11.982;2022-07-05T06:52:57;16.52;;;2.20;;
54871;SDS011;43914;57.680;11.982;2022-07-05T06:55:24;11.18;;;1.80;;
54871;SDS011;43914;57.680;11.982;2022-07-05T06:58:04;9.90;;;1.50;;
54871;SDS011;43914;57.680;11.982;2022-07-05T07:00:30;10.48;;;1.60;;
54871;SDS011;43914;57.680;11.982;2022-07-05T07:02:57;11.33;;;2.02;;
54871;SDS011;43914;57.680;11.982;2022-07-05T07:05:23;10.70;;;1.75;;
54871;SDS011;43914;57.680;11.982;2022-07-05T07:07:49;11.20;;;1.75;;
54871;SDS011;43914;57.680;11.982;2022-07-05T07:10:35;9.40;;;1.40;;
54871;SDS011;43914;57.680;11.982;2022-07-05T07:13:01;10.85;;;1.60;;
54871;SDS011;43914;57.680;11.982;2022-07-05T07:15:28;9.88;;;2.02;;
54871;SDS011;43914;57.680;11.982;2022-07-05T07:17:55;8.45;;;1.55;;
54871;SDS011;43914;57.680;11.982;2022-07-05T07:20:21;7.87;;;1.50;;
54871;SDS011;43914;57.680;11.982;2022-07-05T07:22:47;9.05;;;1.50;;
54871;SDS011;43914;57.680;11.982;2022-07-05T07:25:13;10.70;;;1.70;;
54871;SDS011;43914;57.680;11.982;2022-07-05T07:27:52;9.00;;;1.75;;
54871;SDS011;43914;57.680;11.982;2022-07-05T07:30:21;10.45;;;1.70;;
54871;SDS011;43914;57.680;11.982;2022-07-05T07:32:49;10.50;;;1.45;;
54871;SDS011;43914;57.680;11.982;2022-07-05T07:35:15;10.20;;;1.80;;
54871;SDS011;43914;57.680;11.982;2022-07-05T07:37:41;11.48;;;1.67;;
54871;SDS011;43914;57.680;11.982;2022-07-05T07:40:07;13.22;;;1.72;;
54871;SDS011;43914;57.680;11.982;2022-07-05T07:42:34;11.78;;;1.60;;
54871;SDS011;43914;57.680;11.982;2022-07-05T07:45:00;11.83;;;2.12;;
54871;SDS011;43914;57.680;11.982;2022-07-05T07:47:30;7.30;;;1.60;;
54871;SDS011;43914;57.680;11.982;2022-07-05T07:49:58;10.10;;;1.65;;
54871;SDS011;43914;57.680;11.982;2022-07-05T07:52:25;10.20;;;1.30;;
54871;SDS011;43914;57.680;11.982;2022-07-05T07:54:51;9.90;;;1.32;;
54871;SDS011;43914;57.680;11.982;2022-07-05T07:57:18;11.85;;;1.40;;
54871;SDS011;43914;57.680;11.982;2022-07-05T07:59:44;6.87;;;1.27;;
54871;SDS011;43914;57.680;11.982;2022-07-05T08:02:10;7.62;;;1.42;;
54871;SDS011;43914;57.680;11.982;2022-07-05T08:04:36;7.28;;;1.35;;
54871;SDS011;43914;57.680;11.982;2022-07-05T08:07:03;7.58;;;1.30;;
54871;SDS011;43914;57.680;11.982;2022-07-05T08:09:29;9.90;;;1.50;;
54871;SDS011;43914;57.680;11.982;2022-07-05T08:11:56;9.35;;;1.55;;
54871;SDS011;43914;57.680;11.982;2022-07-05T08:14:22;8.70;;;1.55;;
54871;SDS011;43914;57.680;11.982;2022-07-05T08:16:48;15.05;;;1.82;;
54871;SDS011;43914;57.680;11.982;2022-07-05T08:19:16;10.53;;;1.55;;
54871;SDS011;43914;57.680;11.982;2022-07-05T08:22:02;6.70;;;1.30;;
54871;SDS011;43914;57.680;11.982;2022-07-05T08:24:29;10.15;;;1.80;;
54871;SDS011;43914;57.680;11.982;2022-07-05T08:26:55;10.28;;;1.30;;
54871;SDS011;43914;57.680;11.982;2022-07-05T08:29:20;10.90;;;1.70;;
54871;SDS011;43914;57.680;11.982;2022-07-05T08:31:47;8.73;;;1.32;;
54871;SDS011;43914;57.680;11.982;2022-07-05T08:34:16;8.23;;;1.25;;
54871;SDS011;43914;57.680;11.982;2022-07-05T08:36:45;9.68;;;1.60;;
54871;SDS011;43914;57.680;11.982;2022-07-05T08:39:13;5.42;;;1.20;;
54871;SDS011;43914;57.680;11.982;2022-07-05T08:41:40;6.33;;;1.17;;
54871;SDS011;43914;57.680;11.982;2022-07-05T08:44:08;10.45;;;1.20;;
54871;SDS011;43914;57.680;11.982;2022-07-05T08:46:38;6.83;;;1.27;;
54871;SDS011;43914;57.680;11.982;2022-07-05T08:49:06;5.70;;;1.00;;
54871;SDS011;43914;57.680;11.982;2022-07-05T08:51:36;7.95;;;1.30;;
54871;SDS011;43914;57.680;11.982;2022-07-05T08:54:06;7.75;;;1.30;;
54871;SDS011;43914;57.680;11.982;2022-07-05T08:56:37;8.68;;;1.32;;
54871;SDS011;43914;57.680;11.982;2022-07-05T08:59:08;6.00;;;1.00;;
54871;SDS011;43914;57.680;11.982;2022-07-05T09:01:34;4.42;;;0.95;;
54871;SDS011;43914;57.680;11.982;2022-07-05T09:04:05;6.15;;;0.95;;
54871;SDS011;43914;57.680;11.982;2022-07-05T09:06:35;7.05;;;1.00;;
54871;SDS011;43914;57.680;11.982;2022-07-05T09:09:04;6.00;;;1.05;;
54871;SDS011;43914;57.680;11.982;2022-07-05T09:14:07;9.03;;;1.55;;
54871;SDS011;43914;57.680;11.982;2022-07-05T09:16:47;10.90;;;1.42;;
54871;SDS011;43914;57.680;11.982;2022-07-05T09:19:13;10.32;;;1.30;;
54871;SDS011;43914;57.680;11.982;2022-07-05T09:21:40;9.98;;;1.50;;
54871;SDS011;43914;57.680;11.982;2022-07-05T09:24:07;10.75;;;1.45;;
54871;SDS011;43914;57.680;11.982;2022-07-05T09:29:11;9.75;;;1.50;;
54871;SDS011;43914;57.680;11.982;2022-07-05T09:31:40;6.95;;;1.25;;
54871;SDS011;43914;57.680;11.982;2022-07-05T09:34:15;11.70;;;1.50;;
54871;SDS011;43914;57.680;11.982;2022-07-05T09:47:21;9.50;;;1.32;;
54871;SDS011;43914;57.680;11.982;2022-07-05T09:49:53;12.82;;;1.37;;
54871;SDS011;43914;57.680;11.982;2022-07-05T09:52:28;8.00;;;1.57;;
54871;SDS011;43914;57.680;11.982;2022-07-05T09:55:05;9.50;;;1.40;;
54871;SDS011;43914;57.680;11.982;2022-07-05T09:57:37;8.05;;;1.20;;
54871;SDS011;43914;57.680;11.982;2022-07-05T10:00:07;11.08;;;1.47;;
54871;SDS011;43914;57.680;11.982;2022-07-05T10:02:36;7.58;;;1.30;;
54871;SDS011;43914;57.680;11.982;2022-07-05T10:05:08;6.67;;;1.37;;
54871;SDS011;43914;57.680;11.982;2022-07-05T10:07:47;9.60;;;1.50;;
54871;SDS011;43914;57.680;11.982;2022-07-05T10:10:17;6.87;;;1.40;;
54871;SDS011;43914;57.680;11.982;2022-07-05T10:12:46;5.97;;;1.20;;
54871;SDS011;43914;57.680;11.982;2022-07-05T10:15:16;8.75;;;1.60;;
54871;SDS011;43914;57.680;11.982;2022-07-05T10:17:47;13.25;;;1.72;;
54871;SDS011;43914;57.680;11.982;2022-07-05T10:20:39;6.90;;;1.40;;
54871;SDS011;43914;57.680;11.982;2022-07-05T10:25:43;7.42;;;1.20;;
54871;SDS011;43914;57.680;11.982;2022-07-05T10:28:13;8.40;;;1.30;;
54871;SDS011;43914;57.680;11.982;2022-07-05T10:30:43;9.33;;;1.20;;
54871;SDS011;43914;57.680;11.982;2022-07-05T10:33:12;11.05;;;1.60;;
54871;SDS011;43914;57.680;11.982;2022-07-05T10:35:44;10.40;;;1.52;;
54871;SDS011;43914;57.680;11.982;2022-07-05T10:38:09;6.65;;;1.42;;
54871;SDS011;43914;57.680;11.982;2022-07-05T10:40:36;5.55;;;1.05;;
54871;SDS011;43914;57.680;11.982;2022-07-05T10:43:02;9.18;;;1.32;;
54871;SDS011;43914;57.680;11.982;2022-07-05T10:45:34;11.08;;;1.40;;
54871;SDS011;43914;57.680;11.982;2022-07-05T10:50:47;6.42;;;1.00;;
54871;SDS011;43914;57.680;11.982;2022-07-05T10:53:23;8.93;;;1.20;;
54871;SDS011;43914;57.680;11.982;2022-07-05T10:58:30;6.25;;;1.20;;
54871;SDS011;43914;57.680;11.982;2022-07-05T11:11:42;9.83;;;2.35;;
54871;SDS011;43914;57.680;11.982;2022-07-05T11:22:37;8.25;;;1.62;;
54871;SDS011;43914;57.680;11.982;2022-07-05T11:25:30;9.75;;;1.75;;
54871;SDS011;43914;57.680;11.982;2022-07-05T11:28:21;11.85;;;1.52;;
54871;SDS011;43914;57.680;11.982;2022-07-05T11:33:25;9.15;;;1.07;;
54871;SDS011;43914;57.680;11.982;2022-07-05T11:35:56;7.00;;;1.17;;
54871;SDS011;43914;57.680;11.982;2022-07-05T11:38:22;8.45;;;1.72;;
54871;SDS011;43914;57.680;11.982;2022-07-05T11:40:49;7.45;;;1.10;;
54871;SDS011;43914;57.680;11.982;2022-07-05T11:43:16;10.28;;;1.60;;
54871;SDS011;43914;57.680;11.982;2022-07-05T11:46:00;7.10;;;1.40;;
54871;SDS011;43914;57.680;11.982;2022-07-05T11:48:25;7.20;;;1.30;;
54871;SDS011;43914;57.680;11.982;2022-07-05T11:50:52;8.60;;;1.37;;
54871;SDS011;43914;57.680;11.982;2022-07-05T11:53:25;6.65;;;1.10;;
54871;SDS011;43914;57.680;11.982;2022-07-05T11:55:54;7.40;;;1.10;;
54871;SDS011;43914;57.680;11.982;2022-07-05T11:58:33;7.83;;;1.30;;
54871;SDS011;43914;57.680;11.982;2022-07-05T12:00:59;8.75;;;1.30;;
54871;SDS011;43914;57.680;11.982;2022-07-05T12:03:27;8.93;;;1.37;;
54871;SDS011;43914;57.680;11.982;2022-07-05T12:05:54;7.45;;;1.40;;
54871;SDS011;43914;57.680;11.982;2022-07-05T12:08:24;6.50;;;1.27;;
54871;SDS011;43914;57.680;11.982;2022-07-05T12:10:50;7.65;;;1.50;;
54871;SDS011;43914;57.680;11.982;2022-07-05T12:13:50;8.33;;;1.30;;
54871;SDS011;43914;57.680;11.982;2022-07-05T12:16:14;7.12;;;1.45;;
54871;SDS011;43914;57.680;11.982;2022-07-05T12:18:50;7.60;;;1.30;;
54871;SDS011;43914;57.680;11.982;2022-07-05T12:21:20;8.20;;;1.37;;
54871;SDS011;43914;57.680;11.982;2022-07-05T12:23:48;10.50;;;1.40;;
54871;SDS011;43914;57.680;11.982;2022-07-05T12:26:15;10.65;;;1.37;;
54871;SDS011;43914;57.680;11.982;2022-07-05T12:28:44;9.68;;;1.40;;
54871;SDS011;43914;57.680;11.982;2022-07-05T12:31:17;6.45;;;1.00;;
54871;SDS011;43914;57.680;11.982;2022-07-05T12:33:50;10.08;;;1.32;;
54871;SDS011;43914;57.680;11.982;2022-07-05T12:36:18;10.35;;;1.70;;
54871;SDS011;43914;57.680;11.982;2022-07-05T12:38:46;5.47;;;0.90;;
54871;SDS011;43914;57.680;11.982;2022-07-05T12:41:20;9.25;;;1.60;;
54871;SDS011;43914;57.680;11.982;2022-07-05T12:43:52;7.53;;;1.22;;
54871;SDS011;43914;57.680;11.982;2022-07-05T12:46:20;9.63;;;1.30;;
54871;SDS011;43914;57.680;11.982;2022-07-05T12:48:59;7.20;;;1.20;;
54871;SDS011;43914;57.680;11.982;2022-07-05T12:51:35;6.17;;;1.20;;
54871;SDS011;43914;57.680;11.982;2022-07-05T12:54:03;8.48;;;1.40;;
54871;SDS011;43914;57.680;11.982;2022-07-05T12:57:04;6.55;;;1.00;;
54871;SDS011;43914;57.680;11.982;2022-07-05T12:59:59;7.03;;;1.30;;
54871;SDS011;43914;57.680;11.982;2022-07-05T13:02:37;6.58;;;1.10;;
54871;SDS011;43914;57.680;11.982;2022-07-05T13:05:07;7.97;;;1.20;;
54871;SDS011;43914;57.680;11.982;2022-07-05T13:07:42;7.95;;;1.40;;
54871;SDS011;43914;57.680;11.982;2022-07-05T13:12:45;5.70;;;0.98;;
54871;SDS011;43914;57.680;11.982;2022-07-05T13:15:12;9.95;;;1.20;;
54871;SDS011;43914;57.680;11.982;2022-07-05T13:17:39;9.03;;;1.40;;
54871;SDS011;43914;57.680;11.982;2022-07-05T13:20:07;6.97;;;1.02;;
54871;SDS011;43914;57.680;11.982;2022-07-05T13:22:34;5.53;;;0.90;;
54871;SDS011;43914;57.680;11.982;2022-07-05T13:25:00;7.60;;;1.57;;
54871;SDS011;43914;57.680;11.982;2022-07-05T13:27:27;7.42;;;1.80;;
54871;SDS011;43914;57.680;11.982;2022-07-05T13:29:53;6.05;;;1.10;;
54871;SDS011;43914;57.680;11.982;2022-07-05T13:32:19;7.93;;;1.40;;
54871;SDS011;43914;57.680;11.982;2022-07-05T13:34:47;9.65;;;1.05;;
54871;SDS011;43914;57.680;11.982;2022-07-05T13:37:14;8.68;;;1.32;;
54871;SDS011;43914;57.680;11.982;2022-07-05T13:39:40;8.15;;;1.32;;
54871;SDS011;43914;57.680;11.982;2022-07-05T13:42:06;6.30;;;1.10;;
54871;SDS011;43914;57.680;11.982;2022-07-05T13:44:32;12.13;;;1.60;;
54871;SDS011;43914;57.680;11.982;2022-07-05T13:46:58;6.78;;;1.15;;
54871;SDS011;43914;57.680;11.982;2022-07-05T13:49:24;7.20;;;1.25;;
54871;SDS011;43914;57.680;11.982;2022-07-05T13:51:50;7.90;;;1.42;;
54871;SDS011;43914;57.680;11.982;2022-07-05T13:54:18;8.03;;;1.40;;
54871;SDS011;43914;57.680;11.982;2022-07-05T13:56:44;7.47;;;1.15;;
54871;SDS011;43914;57.680;11.982;2022-07-05T13:59:09;8.40;;;1.20;;
54871;SDS011;43914;57.680;11.982;2022-07-05T14:01:35;8.40;;;1.10;;
54871;SDS011;43914;57.680;11.982;2022-07-05T14:04:01;5.58;;;0.98;;
54871;SDS011;43914;57.680;11.982;2022-07-05T14:06:28;6.95;;;1.15;;
54871;SDS011;43914;57.680;11.982;2022-07-05T14:08:56;4.92;;;1.00;;
54871;SDS011;43914;57.680;11.982;2022-07-05T14:11:22;6.33;;;1.15;;
54871;SDS011;43914;57.680;11.982;2022-07-05T14:13:50;7.65;;;1.30;;
54871;SDS011;43914;57.680;11.982;2022-07-05T14:16:16;7.80;;;1.32;;
54871;SDS011;43914;57.680;11.982;2022-07-05T14:18:41;8.13;;;1.10;;
54871;SDS011;43914;57.680;11.982;2022-07-05T14:21:08;7.05;;;1.25;;
54871;SDS011;43914;57.680;11.982;2022-07-05T14:23:36;8.40;;;1.05;;
54871;SDS011;43914;57.680;11.982;2022-07-05T14:26:01;9.85;;;1.42;;
54871;SDS011;43914;57.680;11.982;2022-07-05T14:28:28;7.70;;;1.25;;
54871;SDS011;43914;57.680;11.982;2022-07-05T14:30:54;6.83;;;1.10;;
54871;SDS011;43914;57.680;11.982;2022-07-05T14:33:20;6.10;;;1.00;;
54871;SDS011;43914;57.680;11.982;2022-07-05T14:35:46;7.12;;;1.10;;
54871;SDS011;43914;57.680;11.982;2022-07-05T14:38:13;7.87;;;1.10;;
54871;SDS011;43914;57.680;11.982;2022-07-05T14:40:38;7.47;;;1.35;;
54871;SDS011;43914;57.680;11.982;2022-07-05T14:43:04;7.80;;;1.55;;
54871;SDS011;43914;57.680;11.982;2022-07-05T14:45:30;9.40;;;1.10;;
54871;SDS011;43914;57.680;11.982;2022-07-05T14:47:56;7.22;;;1.20;;
54871;SDS011;43914;57.680;11.982;2022-07-05T14:50:22;5.40;;;1.10;;
54871;SDS011;43914;57.680;11.982;2022-07-05T14:52:48;4.67;;;0.82;;
54871;SDS011;43914;57.680;11.982;2022-07-05T14:55:15;5.87;;;0.90;;
54871;SDS011;43914;57.680;11.982;2022-07-05T14:57:42;4.75;;;1.00;;
54871;SDS011;43914;57.680;11.982;2022-07-05T15:00:09;8.35;;;1.30;;
54871;SDS011;43914;57.680;11.982;2022-07-05T15:02:37;7.37;;;1.10;;
54871;SDS011;43914;57.680;11.982;2022-07-05T15:05:04;6.83;;;1.47;;
54871;SDS011;43914;57.680;11.982;2022-07-05T15:07:33;8.65;;;1.37;;
54871;SDS011;43914;57.680;11.982;2022-07-05T15:09:59;8.25;;;1.40;;
54871;SDS011;43914;57.680;11.982;2022-07-05T15:12:25;7.83;;;1.30;;
54871;SDS011;43914;57.680;11.982;2022-07-05T15:14:50;7.58;;;1.30;;
54871;SDS011;43914;57.680;11.982;2022-07-05T15:17:16;8.58;;;1.47;;
54871;SDS011;43914;57.680;11.982;2022-07-05T15:19:42;6.45;;;1.20;;
54871;SDS011;43914;57.680;11.982;2022-07-05T15:22:08;9.00;;;1.40;;
54871;SDS011;43914;57.680;11.982;2022-07-05T15:24:35;6.40;;;1.30;;